Jepson Prairie Reserve, California Weather observations

Data are for 10 minute period ending at time listed.
 Day   Time   Solar   Ave.   Ave.  Ave.  Vector  Max.   Baro.   Total    
  of    of     Rad.   Air    Rel.  Wind   Wind   Wind  Press.  Precip.   
Year   Day            Temp.  Hum.  Speed  Dir.   Gust                    
2016   (PST)  Kw/m2    F      %     mph   deg.    mph    mb.     in.     
-------------------------------------------------------------------------
 238    0:10   0.00   58.1    87   19.8   214    24.1   1009.5    0.00 
 238    0:20   0.00   58.0    88   21.2   216    25.9   1009.5    0.00 
 238    0:30   0.00   58.1    87   22.6   218    27.9   1009.5    0.00 
 238    0:40   0.00   58.0    87   19.8   212    25.4   1009.5    0.00 
 238    0:50   0.00   57.9    88   21.0   215    25.4   1009.1    0.00 
 238    1:00   0.00   57.9    88   19.4   213    25.6   1009.5    0.00 
 238    1:10   0.00   57.8    88   17.8   213    24.3   1009.5    0.00 
 238    1:20   0.00   57.5    88   18.4   216    22.1   1009.5    0.00 
 238    1:30   0.00   57.3    89   17.5   214    22.4   1009.5    0.00 
 238    1:40   0.00   57.3    88   17.8   219    23.9   1009.5    0.00 
 238    1:50   0.00   56.8    88   16.4   221    21.0   1009.5    0.00 
 238    2:00   0.00   56.4    89   16.5   222    21.3   1009.5    0.00 
 238    2:10   0.00   56.4    90   16.8   227    21.9   1009.5    0.00 
 238    2:20   0.00   56.4    90   17.0   222    22.1   1009.5    0.00 
 238    2:30   0.00   56.4    90   16.0   208    27.7   1009.5    0.00 
 238    2:40   0.00   56.6    90   18.6   213    26.5   1009.5    0.00 
 238    2:50   0.00   56.4    90   18.0   219    24.8   1009.5    0.00 
 238    3:00   0.00   56.3    90   16.9   219    22.8   1009.5    0.00 
 238    3:10   0.00   56.2    90   17.0   223    21.2   1009.5    0.00 
 238    3:20   0.00   56.1    90   15.4   222    23.2   1009.5    0.00 
 238    3:30   0.00   55.9    90   16.3   220    21.2   1009.5    0.00 
 238    3:40   0.00   55.6    91   17.4   222    24.6   1009.5    0.00 
 238    3:50   0.00   55.4    91   17.0   221    22.9   1009.5    0.00 
 238    4:00   0.00   55.3    92   16.7   223    22.1   1009.5    0.00 
 238    4:10   0.00   55.1    92   16.6   218    23.2   1009.5    0.00 
 238    4:20   0.00   55.0    92   16.0   219    21.6   1009.8    0.00 
 238    4:30   0.00   54.9    92   16.1   218    23.6   1009.8    0.00 
 238    4:40   0.00   54.8    92   14.4   219    21.5   1009.8    0.00 
 238    4:50   0.00   54.8    92   14.5   222    21.9   1009.8    0.00 
 238    5:00   0.00   54.7    92   14.6   225    22.6   1009.8    0.00 
 238    5:10   0.00   54.5    93   15.1   222    20.9   1009.8    0.00 
 238    5:20   0.00   54.5    93   14.0   232    20.9   1010.2    0.00 
 238    5:30   0.00   54.4    93   16.5   228    21.5   1010.2    0.00 
 238    5:40   0.01   54.4    93   16.3   225    23.1   1010.2    0.00 
 238    5:50   0.02   54.4    93   17.1   221    22.9   1010.2    0.00 
 238    6:00   0.04   54.4    94   18.1   220    23.5   1010.5    0.00 
 238    6:10   0.07   54.5    94   16.5   220    20.5   1010.5    0.00 
 238    6:20   0.09   54.7    93   16.7   225    20.4   1010.5    0.00 
 238    6:30   0.12   55.1    93   15.3   226    19.6   1010.5    0.00 
 238    6:40   0.15   55.7    93   16.4   222    21.9   1010.5    0.00 
 238    6:50   0.18   56.2    92   16.7   217    21.9   1010.5    0.00 
 238    7:00   0.21   57.2    90   18.0   216    23.2   1010.5    0.00 
 238    7:10   0.24   58.0    88   17.3   219    21.2   1010.8    0.00 
 238    7:20   0.27   58.5    86   19.0   221    25.0   1010.8    0.00 
 238    7:30   0.31   59.2    84   18.3   225    23.6   1010.8    0.00 
 238    7:40   0.34   59.8    82   17.7   221    24.3   1010.8    0.00 
 238    7:50   0.37   60.5    80   20.6   224    25.4   1010.8    0.00 
 238    8:00   0.41   61.0    78   21.2   224    26.4   1010.8    0.00 
 238    8:10   0.44   61.8    76   19.6   222    24.0   1011.2    0.00 
 238    8:20   0.47   62.7    74   19.6   226    25.6   1011.2    0.00 
 238    8:30   0.50   63.1    72   20.5   218    24.4   1011.2    0.00 
 238    8:40   0.53   63.8    71   19.5   220    22.9   1011.2    0.00 
 238    8:50   0.56   65.0    69   18.5   222    23.0   1011.2    0.00 
 238    9:00   0.58   65.7    67   18.8   224    22.4   1011.2    0.00 
 238    9:10   0.61   66.3    65   18.4   226    21.9   1011.2    0.00 
 238    9:20   0.64   67.5    64   17.2   227    21.5   1011.2    0.00 
 238    9:30   0.65   68.0    62   18.0   220    21.5   1011.2    0.00 
 238    9:40   0.69   68.3    61   18.9   223    23.1   1011.2    0.00 
 238    9:50   0.71   69.9    59   17.2   225    22.1   1011.2    0.00 
 238   10:00   0.73   70.4    58   18.6   228    23.0   1011.2    0.00 
 238   10:10   0.75   70.7    57   18.8   224    22.6   1011.2    0.00 
 238   10:20   0.77   71.8    56   18.1   228    22.9   1011.2    0.00 
 238   10:30   0.78   72.2    54   18.1   230    22.4   1011.2    0.00 
 238   10:40   0.80   73.1    53   17.7   225    22.9   1010.8    0.00 
 238   10:50   0.81   73.3    52   18.5   227    23.2   1010.8    0.00 
 238   11:00   0.83   73.7    52   18.3   224    23.2   1010.8    0.00 
 238   11:10   0.84   74.7    50   17.4   224    22.6   1010.8    0.00 
 238   11:20   0.84   75.6    50   17.0   224    20.5   1010.8    0.00 
 238   11:30   0.85   76.1    49   18.2   230    23.3   1010.5    0.00 
 238   11:40   0.86   76.9    48   17.1   230    21.2   1010.5    0.00 
 238   11:50   0.86   77.7    47   16.8   226    21.9   1010.2    0.00 
 238   12:00   0.87   77.5    47   17.2   224    21.6   1010.2    0.00 
 238   12:10   0.87   78.3    46   16.9   225    21.1   1010.2    0.00 
 238   12:20   0.87   79.1    45   16.6   228    21.4   1009.8    0.00 
 238   12:30   0.87   80.2    44   16.3   224    21.6   1009.8    0.00 
 238   12:40   0.87   80.5    43   15.7   223    20.4   1009.5    0.00 
 238   12:50   0.86   81.5    42   17.2   226    20.7   1009.5    0.00 
 238   13:00   0.85   81.8    41   16.9   225    22.1   1009.1    0.00 
 238   13:10   0.84   82.4    40   17.0   222    21.9   1009.1    0.00 
 238   13:20   0.83   82.5    40   18.2   224    24.0   1008.8    0.00 
 238   13:30   0.82   82.7    40   18.5   225    23.9   1008.8    0.00 
 238   13:40   0.81   82.9    40   18.9   226    24.0   1008.8    0.00 
 238   13:50   0.80   83.2    40   19.0   225    24.6   1008.5    0.00 
 238   14:00   0.78   82.9    40   19.3   223    23.8   1008.5    0.00 
 238   14:10   0.76   83.4    40   18.9   225    24.3   1008.5    0.00 
 238   14:20   0.74   83.4    40   19.1   224    23.9   1008.1    0.00 
 238   14:30   0.72   83.5    39   18.9   223    24.4   1008.1    0.00 
 238   14:40   0.70   83.9    39   19.7   222    24.2   1007.8    0.00 
 238   14:50   0.68   84.1    39   20.6   226    25.2   1007.8    0.00 
 238   15:00   0.65   83.9    39   20.9   222    25.6   1007.8    0.00 
 238   15:10   0.63   84.1    39   20.1   223    25.8   1007.5    0.00 
 238   15:20   0.60   84.8    39   20.7   222    25.7   1007.5    0.00 
 238   15:30   0.57   84.5    40   21.0   226    26.3   1007.1    0.00 
 238   15:40   0.55   84.7    39   20.5   226    25.0   1007.1    0.00 
 238   15:50   0.52   84.2    39   21.6   226    25.7   1007.1    0.00 
 238   16:00   0.49   83.9    39   21.8   224    26.2   1007.1    0.00 
 238   16:10   0.46   84.2    39   20.9   224    24.9   1006.8    0.00 
 238   16:20   0.42   83.8    39   21.8   222    26.5   1006.8    0.00 
 238   16:30   0.39   84.0    39   21.0   220    25.4   1006.8    0.00 
 238   16:40   0.36   83.4    40   21.2   222    25.2   1006.8    0.00 
 238   16:50   0.33   82.5    41   21.4   219    26.5   1006.8    0.00 
 238   17:00   0.30   81.7    43   20.7   220    25.2   1006.8    0.00 
 238   17:10   0.27   80.5    45   21.2   221    25.4   1006.8    0.00 
 238   17:20   0.23   79.0    48   21.1   223    26.2   1006.8    0.00 
 238   17:30   0.20   77.7    50   21.2   222    25.5   1006.8    0.00 
 238   17:40   0.16   76.2    52   22.0   218    26.3   1007.1    0.00 
 238   17:50   0.14   75.1    54   21.8   213    27.8   1007.1    0.00 
 238   18:00   0.11   73.8    56   22.6   211    27.2   1007.1    0.00 
 238   18:10   0.08   72.5    59   23.2   212    29.2   1007.1    0.00 
 238   18:20   0.06   71.1    62   23.5   211    29.2   1007.5    0.00 
 238   18:30   0.03   69.8    64   23.3   214    29.8   1007.5    0.00 
 238   18:40   0.01   68.4    66   23.9   217    31.9   1007.1    0.00 
 238   18:50   0.00   67.7    68   23.8   216    32.6   1007.1    0.00 
 238   19:00   0.00   66.6    70   22.6   212    29.1   1007.1    0.00 
 238   19:10   0.00   66.2    71   24.7   216    31.4   1007.5    0.00 
 238   19:20   0.00   65.9    72   25.1   216    30.5   1007.5    0.00 
 238   19:30   0.00   65.2    73   22.0   214    29.1   1007.5    0.00 
 238   19:40   0.00   64.0    76   21.2   208    26.5   1007.5    0.00 
 238   19:50   0.00   62.7    79   24.2   209    29.7   1007.5    0.00 
 238   20:00   0.00   62.1    81   24.2   208    28.6   1007.5    0.00 
 238   20:10   0.00   62.0    82   24.0   209    29.8   1007.5    0.00 
 238   20:20   0.00   61.8    83   24.9   209    30.0   1007.8    0.00 
 238   20:30   0.00   61.7    84   24.4   211    30.7   1007.8    0.00 
 238   20:40   0.00   61.4    84   23.7   210    29.0   1007.8    0.00 
 238   20:50   0.00   61.4    84   21.8   211    27.6   1007.8    0.00 
 238   21:00   0.00   61.4    83   21.9   211    27.2   1007.8    0.00 
 238   21:10   0.00   61.2    84   22.4   212    27.5   1007.8    0.00 
 238   21:20   0.00   61.0    84   22.0   213    27.8   1007.8    0.00 
 238   21:30   0.00   60.8    86   23.0   214    28.2   1007.8    0.00 
 238   21:40   0.00   60.7    86   23.1   214    31.0   1007.8    0.00 
 238   21:50   0.00   60.5    86   23.2   213    28.2   1007.8    0.00 
 238   22:00   0.00   60.2    87   22.2   213    28.4   1007.8    0.00 
 238   22:10   0.00   60.2    87   23.2   214    28.2   1007.5    0.00 
 238   22:20   0.00   60.2    87   23.7   215    29.1   1007.5    0.00 
 238   22:30   0.00   60.1    87   24.2   214    29.6   1007.5    0.00 
 238   22:40   0.00   59.8    88   22.6   217    28.3   1007.5    0.00 
 238   22:50   0.00   59.7    88   22.4   219    28.6   1007.5    0.00 
 238   23:00   0.00   59.7    88   23.2   219    27.9   1007.5    0.00 
 238   23:10   100.00  99999.0   99999  99999.0   99999   99999.0   99999.0   99999.00 
 238   23:20   100.00  99999.0   99999  99999.0   99999   99999.0   99999.0   99999.00 
 238   23:30   100.00  99999.0   99999  99999.0   99999   99999.0   99999.0   99999.00 
 238   23:40   100.00  99999.0   99999  99999.0   99999   99999.0   99999.0   99999.00 
 238   23:50   100.00  99999.0   99999  99999.0   99999   99999.0   99999.0   99999.00 
 239    0:00   0.00   59.3    90   22.7   215    28.8   1007.5    0.00 

Return to Jepson Prairie Reserve graphs page.


Western Regional Climate Center,wrcc@dri.edu